createdAt,value
2019-02-25T00:03:00.576Z,2.20
2019-02-25T00:07:06.015Z,2.10
2019-02-25T00:11:11.344Z,2.10
2019-02-25T00:15:16.496Z,2.20
2019-02-25T00:19:21.559Z,2.20
2019-02-25T00:23:26.930Z,2.10
2019-02-25T00:27:32.191Z,2.20
2019-02-25T00:31:37.409Z,2.20
2019-02-25T00:35:42.619Z,2.20
2019-02-25T00:39:47.954Z,2.30
2019-02-25T00:43:53.203Z,2.30
2019-02-25T00:48:00.126Z,2.30
2019-02-25T00:52:05.321Z,2.10
2019-02-25T00:56:10.450Z,2.10
2019-02-25T01:00:16.568Z,2.00
2019-02-25T01:04:21.747Z,1.90
2019-02-25T01:08:27.538Z,1.80
2019-02-25T01:12:32.764Z,1.70
2019-02-25T01:16:38.345Z,1.80
2019-02-25T01:20:43.698Z,1.80
2019-02-25T01:24:48.969Z,1.90
2019-02-25T01:28:54.239Z,2.00
2019-02-25T01:32:59.646Z,2.00
2019-02-25T01:37:04.840Z,2.10
2019-02-25T01:41:11.114Z,2.10
2019-02-25T01:45:16.683Z,2.10
2019-02-25T01:49:22.310Z,2.00
2019-02-25T01:53:27.947Z,1.90
2019-02-25T01:57:33.274Z,1.70
2019-02-25T02:01:38.490Z,1.80
2019-02-25T02:05:43.721Z,1.70
2019-02-25T02:09:49.386Z,1.70
2019-02-25T02:13:54.603Z,1.70
2019-02-25T02:17:59.875Z,1.60
2019-02-25T02:22:05.076Z,1.70
2019-02-25T02:26:10.407Z,1.80
2019-02-25T02:30:17.289Z,1.90
2019-02-25T02:34:22.593Z,1.80
2019-02-25T02:38:27.751Z,1.80
2019-02-25T02:42:32.934Z,1.90
2019-02-25T02:47:37.192Z,2.00
2019-02-25T02:51:42.351Z,2.20
2019-02-25T02:55:47.751Z,2.00
2019-02-25T02:59:52.965Z,1.90
2019-02-25T03:03:58.098Z,2.00
2019-02-25T03:08:03.269Z,1.90
2019-02-25T03:12:08.341Z,2.00
2019-02-25T03:16:13.992Z,2.00
2019-02-25T03:20:19.254Z,2.00
2019-02-25T03:24:24.851Z,2.00
2019-02-25T03:28:29.987Z,2.10
2019-02-25T03:32:35.578Z,2.00
2019-02-25T03:36:40.727Z,2.00
2019-02-25T03:40:46.094Z,2.20
2019-02-25T03:44:51.213Z,2.20
2019-02-25T03:48:56.621Z,2.20
2019-02-25T03:53:01.883Z,2.10
2019-02-25T03:57:07.306Z,1.90
2019-02-25T04:01:12.678Z,1.70
2019-02-25T04:05:18.001Z,1.70
2019-02-25T04:09:23.404Z,1.60
2019-02-25T04:13:28.424Z,1.60
2019-02-25T04:17:33.787Z,1.50
2019-02-25T04:21:39.174Z,1.50
2019-02-25T04:25:44.467Z,1.60
2019-02-25T04:29:49.585Z,1.50
2019-02-25T04:33:54.869Z,1.40
2019-02-25T04:38:00.060Z,1.40
2019-02-25T04:42:05.446Z,1.50
2019-02-25T04:46:10.775Z,1.60
2019-02-25T04:50:16.335Z,1.40
2019-02-25T04:54:21.710Z,1.30
2019-02-25T04:58:26.904Z,1.00
2019-02-25T05:02:32.399Z,0.80
2019-02-25T05:06:37.639Z,0.70
2019-02-25T05:10:42.889Z,0.50
2019-02-25T05:14:48.218Z,0.30
2019-02-25T05:18:53.357Z,0.30
2019-02-25T05:22:58.721Z,0.10
2019-02-25T05:27:03.968Z,-0.10
2019-02-25T05:31:09.335Z,-0.30
2019-02-25T05:35:14.795Z,-0.50
2019-02-25T05:39:20.179Z,-0.60
2019-02-25T05:43:25.379Z,-0.40
2019-02-25T05:47:30.837Z,0.00
2019-02-25T05:51:35.990Z,0.20
2019-02-25T05:55:41.259Z,0.40
2019-02-25T05:59:47.413Z,0.70
2019-02-25T06:03:54.284Z,0.90
2019-02-25T06:07:59.367Z,1.10
2019-02-25T06:12:04.703Z,1.10
2019-02-25T06:16:09.866Z,1.30
2019-02-25T06:20:17.486Z,1.20
2019-02-25T06:24:22.655Z,1.00
2019-02-25T06:28:28.635Z,0.90
2019-02-25T06:32:33.842Z,0.60
2019-02-25T06:36:39.217Z,0.60
2019-02-25T06:40:44.528Z,0.60
2019-02-25T06:44:49.932Z,0.50
2019-02-25T06:48:55.110Z,0.60
2019-02-25T06:53:00.535Z,0.90
2019-02-25T06:57:05.680Z,1.30
2019-02-25T07:01:11.047Z,1.60
2019-02-25T07:05:28.192Z,1.90
2019-02-25T07:09:44.786Z,2.30
2019-02-25T07:14:14.858Z,2.60
2019-02-25T07:18:45.304Z,3.00
2019-02-25T07:23:08.592Z,3.30
2019-02-25T07:27:35.501Z,3.60
2019-02-25T07:32:18.003Z,4.00
2019-02-25T07:36:54.348Z,4.20
2019-02-25T07:41:15.105Z,4.50
2019-02-25T07:45:36.654Z,4.80
2019-02-25T07:49:55.999Z,5.20
2019-02-25T07:54:13.310Z,5.50
2019-02-25T07:58:31.859Z,6.10
2019-02-25T08:03:14.543Z,6.20
2019-02-25T08:07:37.692Z,6.40
2019-02-25T08:12:04.964Z,6.50
2019-02-25T08:16:27.875Z,6.80
2019-02-25T08:20:52.118Z,7.40
2019-02-25T08:25:14.285Z,7.60
2019-02-25T08:29:37.313Z,7.80
2019-02-25T08:33:55.550Z,7.90
2019-02-25T08:38:19.532Z,8.10
2019-02-25T08:42:34.298Z,8.40
2019-02-25T08:47:02.219Z,8.70
2019-02-25T08:51:07.758Z,9.20
2019-02-25T08:55:13.000Z,9.50
2019-02-25T08:59:18.237Z,9.80
2019-02-25T09:03:23.634Z,10.50
2019-02-25T09:07:28.976Z,9.80
2019-02-25T09:11:34.254Z,10.00
2019-02-25T09:15:39.705Z,10.20
2019-02-25T09:19:44.986Z,11.30
2019-02-25T09:23:50.243Z,11.50
2019-02-25T09:27:55.427Z,11.40
2019-02-25T09:32:00.899Z,11.10
2019-02-25T09:36:06.080Z,11.30
2019-02-25T09:40:13.508Z,11.20
2019-02-25T09:44:18.722Z,11.20
2019-02-25T09:48:24.066Z,11.00
2019-02-25T09:52:29.286Z,10.90
2019-02-25T09:56:34.617Z,11.20
2019-02-25T10:00:39.880Z,10.90
2019-02-25T10:04:45.094Z,11.30
2019-02-25T10:08:50.323Z,11.40
2019-02-25T10:12:55.552Z,11.40
2019-02-25T10:17:00.920Z,12.40
2019-02-25T10:21:06.076Z,13.10
2019-02-25T10:25:11.365Z,13.30
2019-02-25T10:29:16.657Z,14.30
2019-02-25T10:33:21.991Z,15.10
2019-02-25T10:37:27.179Z,14.70
2019-02-25T10:41:32.511Z,14.50
2019-02-25T10:45:39.006Z,14.40
2019-02-25T10:49:44.817Z,14.20
2019-02-25T10:53:51.616Z,13.60
2019-02-25T10:57:58.847Z,13.30
2019-02-25T11:02:03.799Z,13.30
2019-02-25T11:06:09.018Z,13.30
2019-02-25T11:10:35.666Z,13.40
2019-02-25T11:14:43.316Z,13.30
2019-02-25T11:18:50.040Z,13.10
2019-02-25T11:22:55.103Z,12.70
2019-02-25T11:27:01.062Z,12.50
2019-02-25T11:31:08.262Z,12.20
2019-02-25T11:35:14.136Z,12.50
2019-02-25T11:39:20.065Z,12.60
2019-02-25T11:43:25.334Z,12.80
2019-02-25T11:47:30.605Z,14.20
2019-02-25T11:51:35.910Z,15.80
2019-02-25T11:55:41.443Z,18.40
2019-02-25T11:59:46.731Z,20.00
2019-02-25T12:03:51.909Z,20.00
2019-02-25T12:07:57.090Z,19.60
2019-02-25T12:12:02.411Z,19.80
2019-02-25T12:16:07.526Z,20.20
2019-02-25T12:20:13.250Z,19.90
2019-02-25T12:24:18.557Z,19.70
2019-02-25T12:28:25.090Z,19.40
2019-02-25T12:32:30.336Z,21.20
2019-02-25T12:36:35.490Z,21.50
2019-02-25T12:40:41.121Z,20.40
2019-02-25T12:44:46.632Z,18.90
2019-02-25T12:48:52.046Z,17.50
2019-02-25T12:52:57.165Z,16.70
2019-02-25T12:57:02.546Z,16.20
2019-02-25T13:01:09.246Z,16.10
2019-02-25T13:05:15.464Z,16.50
2019-02-25T13:09:20.637Z,17.20
2019-02-25T13:13:26.322Z,16.50
2019-02-25T13:17:31.649Z,16.00
2019-02-25T13:21:36.854Z,15.30
2019-02-25T13:25:42.149Z,16.40
2019-02-25T13:29:49.465Z,17.50
2019-02-25T13:33:55.242Z,18.70
2019-02-25T13:38:00.505Z,18.40
2019-02-25T13:42:05.906Z,17.70
2019-02-25T13:46:11.126Z,17.80
2019-02-25T13:50:18.152Z,18.50
2019-02-25T13:54:23.074Z,19.70
2019-02-25T13:58:28.244Z,21.40
2019-02-25T14:02:33.349Z,20.10
2019-02-25T14:06:38.331Z,20.80
2019-02-25T14:10:43.373Z,21.90
2019-02-25T14:14:48.360Z,21.50
2019-02-25T14:18:53.432Z,21.60
2019-02-25T14:23:00.215Z,21.30
2019-02-25T14:27:05.040Z,20.30
2019-02-25T14:31:11.125Z,18.50
2019-02-25T14:35:18.178Z,18.30
2019-02-25T14:39:28.109Z,19.70
2019-02-25T14:43:36.714Z,20.90
2019-02-25T14:47:40.030Z,19.20
2019-02-25T14:51:45.641Z,16.50
2019-02-25T14:55:53.166Z,15.40
2019-02-25T14:59:58.878Z,14.50
2019-02-25T15:04:06.491Z,13.80
2019-02-25T15:08:12.894Z,13.30
2019-02-25T15:12:20.625Z,12.70
2019-02-25T15:16:26.217Z,12.30
2019-02-25T15:20:32.574Z,12.00
2019-02-25T15:24:39.461Z,11.90
2019-02-25T15:28:46.397Z,11.90
2019-02-25T15:32:57.057Z,11.70
2019-02-25T15:37:02.491Z,11.70
2019-02-25T15:41:11.181Z,11.50
2019-02-25T15:45:20.575Z,11.40
2019-02-25T15:49:28.150Z,11.10
2019-02-25T15:53:35.927Z,11.00
2019-02-25T15:57:42.231Z,10.80
2019-02-25T16:01:48.725Z,10.50
2019-02-25T16:05:58.014Z,10.30
2019-02-25T16:10:05.009Z,10.00
2019-02-25T16:14:12.122Z,9.80
2019-02-25T16:18:18.033Z,9.50
2019-02-25T16:22:25.743Z,9.20
2019-02-25T16:26:34.275Z,8.90
2019-02-25T16:30:42.411Z,8.50
2019-02-25T16:34:48.987Z,8.20
2019-02-25T16:38:58.072Z,7.80
2019-02-25T16:43:05.234Z,7.40
2019-02-25T16:47:12.189Z,7.00
2019-02-25T16:51:19.494Z,6.80
2019-02-25T16:55:27.723Z,6.60
2019-02-25T16:59:35.077Z,6.30
2019-02-25T17:03:43.892Z,6.10
2019-02-25T17:07:50.609Z,5.90
2019-02-25T17:11:58.130Z,5.70
2019-02-25T17:16:03.898Z,5.40
2019-02-25T17:20:13.130Z,5.30
2019-02-25T17:24:18.797Z,5.10
2019-02-25T17:28:25.035Z,4.90
2019-02-25T17:32:32.793Z,4.80
2019-02-25T17:36:39.553Z,4.60
2019-02-25T17:40:45.510Z,4.50
2019-02-25T17:44:53.638Z,4.40
2019-02-25T17:49:00.255Z,4.20
2019-02-25T17:53:07.183Z,4.10
2019-02-25T17:57:14.190Z,4.00
2019-02-25T18:01:21.987Z,3.80
2019-02-25T18:05:31.159Z,3.70
2019-02-25T18:09:39.919Z,3.60
2019-02-25T18:13:46.847Z,3.60
2019-02-25T18:17:53.555Z,3.40
2019-02-25T18:21:59.796Z,3.30
2019-02-25T18:26:05.051Z,3.20
2019-02-25T18:30:12.286Z,3.00
2019-02-25T18:34:18.706Z,2.80
2019-02-25T18:38:25.153Z,2.80
2019-02-25T18:42:34.865Z,2.70
2019-02-25T18:46:41.741Z,2.60
2019-02-25T18:50:50.173Z,2.60
2019-02-25T18:54:55.987Z,2.60
2019-02-25T18:59:08.861Z,2.40
2019-02-25T19:03:10.574Z,2.30
2019-02-25T19:07:16.923Z,2.30
2019-02-25T19:11:23.597Z,2.30
2019-02-25T19:15:31.440Z,2.30
2019-02-25T19:19:38.959Z,2.20
2019-02-25T19:23:46.454Z,2.20
2019-02-25T19:27:54.453Z,2.10
2019-02-25T19:32:02.250Z,2.10
2019-02-25T19:36:10.750Z,1.90
2019-02-25T19:40:20.008Z,1.80
2019-02-25T19:44:27.826Z,1.80
2019-02-25T19:48:35.848Z,1.70
2019-02-25T19:52:44.287Z,1.60
2019-02-25T19:56:53.150Z,1.60
2019-02-25T20:01:01.008Z,1.50
2019-02-25T20:05:09.547Z,1.50
2019-02-25T20:09:16.090Z,1.40
2019-02-25T20:13:22.699Z,1.40
2019-02-25T20:17:30.506Z,1.30
2019-02-25T20:21:37.078Z,1.20
2019-02-25T20:25:48.499Z,1.30
2019-02-25T20:29:55.457Z,1.30
2019-02-25T20:34:02.830Z,1.20
2019-02-25T20:38:12.138Z,1.20
2019-02-25T20:42:21.762Z,1.10
2019-02-25T20:46:30.726Z,1.10
2019-02-25T20:50:37.402Z,1.10
2019-02-25T20:54:45.957Z,1.20
2019-02-25T20:58:53.363Z,1.10
2019-02-25T21:02:59.382Z,1.10
2019-02-25T21:07:06.548Z,1.00
2019-02-25T21:11:15.640Z,1.20
2019-02-25T21:15:21.437Z,1.20
2019-02-25T21:19:30.232Z,1.20
2019-02-25T21:23:36.494Z,1.30
2019-02-25T21:27:42.068Z,1.30
2019-02-25T21:31:49.661Z,1.30
2019-02-25T21:35:56.278Z,1.40
2019-02-25T21:40:05.122Z,1.60
2019-02-25T21:44:16.588Z,1.60
2019-02-25T21:48:23.093Z,1.70
2019-02-25T21:52:32.564Z,1.60
2019-02-25T21:56:37.609Z,1.70
2019-02-25T22:00:45.075Z,1.70
2019-02-25T22:04:51.833Z,1.70
2019-02-25T22:09:00.699Z,1.70
2019-02-25T22:13:08.840Z,1.70
2019-02-25T22:17:15.128Z,1.60
2019-02-25T22:21:22.871Z,1.70
2019-02-25T22:25:30.924Z,1.80
2019-02-25T22:29:36.960Z,2.10
2019-02-25T22:33:43.025Z,2.10
2019-02-25T22:37:52.033Z,2.20
2019-02-25T22:41:55.131Z,2.30
2019-02-25T22:46:02.362Z,2.40
2019-02-25T22:50:08.675Z,2.40
2019-02-25T22:54:16.617Z,2.40
2019-02-25T22:58:21.718Z,2.50
2019-02-25T23:02:28.143Z,2.50
2019-02-25T23:06:33.386Z,2.50
2019-02-25T23:10:41.949Z,2.70
2019-02-25T23:14:45.800Z,2.70
2019-02-25T23:18:50.949Z,2.90
2019-02-25T23:22:57.384Z,2.90
2019-02-25T23:27:03.003Z,2.90
2019-02-25T23:31:08.373Z,3.10
2019-02-25T23:35:15.585Z,3.10
2019-02-25T23:39:20.473Z,3.20
2019-02-25T23:43:25.855Z,3.30
2019-02-25T23:47:33.377Z,3.40
2019-02-25T23:51:39.529Z,3.50
2019-02-25T23:55:47.291Z,3.60
2019-02-25T23:59:54.091Z,3.70
